sensor_id;sensor_type;location;lat;lon;timestamp;P1;durP1;ratioP1;P2;durP2;ratioP2
19167;SDS011;9716;53.114;18.040;2023-05-08T00:00:33;19.98;;;5.13;;
19167;SDS011;9716;53.114;18.040;2023-05-08T00:03:16;8.95;;;5.10;;
19167;SDS011;9716;53.114;18.040;2023-05-08T00:05:45;8.18;;;5.00;;
19167;SDS011;9716;53.114;18.040;2023-05-08T00:08:13;14.02;;;6.13;;
19167;SDS011;9716;53.114;18.040;2023-05-08T00:10:41;11.10;;;5.63;;
19167;SDS011;9716;53.114;18.040;2023-05-08T00:13:11;12.63;;;5.53;;
19167;SDS011;9716;53.114;18.040;2023-05-08T00:15:39;8.55;;;4.53;;
19167;SDS011;9716;53.114;18.040;2023-05-08T00:18:08;9.73;;;4.80;;
19167;SDS011;9716;53.114;18.040;2023-05-08T00:20:36;10.23;;;5.80;;
19167;SDS011;9716;53.114;18.040;2023-05-08T00:23:05;13.40;;;6.25;;
19167;SDS011;9716;53.114;18.040;2023-05-08T00:25:33;12.32;;;5.82;;
19167;SDS011;9716;53.114;18.040;2023-05-08T00:28:01;13.68;;;5.10;;
19167;SDS011;9716;53.114;18.040;2023-05-08T00:30:31;9.00;;;5.13;;
19167;SDS011;9716;53.114;18.040;2023-05-08T00:32:59;9.55;;;5.55;;
19167;SDS011;9716;53.114;18.040;2023-05-08T00:35:28;11.60;;;5.47;;
19167;SDS011;9716;53.114;18.040;2023-05-08T00:37:56;10.93;;;6.00;;
19167;SDS011;9716;53.114;18.040;2023-05-08T00:40:25;11.05;;;4.97;;
19167;SDS011;9716;53.114;18.040;2023-05-08T00:42:53;17.27;;;5.82;;
19167;SDS011;9716;53.114;18.040;2023-05-08T00:45:22;12.07;;;5.78;;
19167;SDS011;9716;53.114;18.040;2023-05-08T00:47:51;10.18;;;5.40;;
19167;SDS011;9716;53.114;18.040;2023-05-08T00:50:20;9.77;;;5.25;;
19167;SDS011;9716;53.114;18.040;2023-05-08T00:52:48;9.90;;;5.40;;
19167;SDS011;9716;53.114;18.040;2023-05-08T00:55:17;12.68;;;5.35;;
19167;SDS011;9716;53.114;18.040;2023-05-08T00:57:46;16.08;;;5.88;;
19167;SDS011;9716;53.114;18.040;2023-05-08T01:00:15;8.25;;;4.80;;
19167;SDS011;9716;53.114;18.040;2023-05-08T01:02:44;10.50;;;5.15;;
19167;SDS011;9716;53.114;18.040;2023-05-08T01:05:15;17.42;;;5.00;;
19167;SDS011;9716;53.114;18.040;2023-05-08T01:07:43;10.85;;;4.72;;
19167;SDS011;9716;53.114;18.040;2023-05-08T01:10:12;12.32;;;5.13;;
19167;SDS011;9716;53.114;18.040;2023-05-08T01:12:55;10.07;;;5.07;;
19167;SDS011;9716;53.114;18.040;2023-05-08T01:15:34;8.63;;;4.65;;
19167;SDS011;9716;53.114;18.040;2023-05-08T01:18:13;12.75;;;5.57;;
19167;SDS011;9716;53.114;18.040;2023-05-08T01:20:50;9.20;;;5.00;;
19167;SDS011;9716;53.114;18.040;2023-05-08T01:23:37;12.95;;;5.35;;
19167;SDS011;9716;53.114;18.040;2023-05-08T01:26:36;14.07;;;5.13;;
19167;SDS011;9716;53.114;18.040;2023-05-08T01:29:23;13.52;;;5.63;;
19167;SDS011;9716;53.114;18.040;2023-05-08T01:32:13;13.52;;;5.90;;
19167;SDS011;9716;53.114;18.040;2023-05-08T01:34:50;10.77;;;4.38;;
19167;SDS011;9716;53.114;18.040;2023-05-08T01:37:27;10.80;;;5.75;;
19167;SDS011;9716;53.114;18.040;2023-05-08T01:40:07;7.72;;;3.80;;
19167;SDS011;9716;53.114;18.040;2023-05-08T01:42:42;10.18;;;5.45;;
19167;SDS011;9716;53.114;18.040;2023-05-08T01:45:17;8.05;;;5.13;;
19167;SDS011;9716;53.114;18.040;2023-05-08T01:47:53;10.20;;;5.25;;
19167;SDS011;9716;53.114;18.040;2023-05-08T01:50:29;7.85;;;5.22;;
19167;SDS011;9716;53.114;18.040;2023-05-08T01:53:04;11.48;;;5.82;;
19167;SDS011;9716;53.114;18.040;2023-05-08T01:55:36;9.27;;;5.00;;
19167;SDS011;9716;53.114;18.040;2023-05-08T01:58:07;11.57;;;5.70;;
19167;SDS011;9716;53.114;18.040;2023-05-08T02:00:38;11.07;;;5.32;;
19167;SDS011;9716;53.114;18.040;2023-05-08T02:03:09;8.57;;;4.30;;
19167;SDS011;9716;53.114;18.040;2023-05-08T02:05:40;9.43;;;5.53;;
19167;SDS011;9716;53.114;18.040;2023-05-08T02:08:10;10.70;;;5.22;;
19167;SDS011;9716;53.114;18.040;2023-05-08T02:10:40;11.35;;;5.00;;
19167;SDS011;9716;53.114;18.040;2023-05-08T02:13:10;9.57;;;4.18;;
19167;SDS011;9716;53.114;18.040;2023-05-08T02:15:44;14.48;;;4.97;;
19167;SDS011;9716;53.114;18.040;2023-05-08T02:18:17;14.13;;;4.97;;
19167;SDS011;9716;53.114;18.040;2023-05-08T02:20:48;11.10;;;5.50;;
19167;SDS011;9716;53.114;18.040;2023-05-08T02:23:18;13.10;;;5.30;;
19167;SDS011;9716;53.114;18.040;2023-05-08T02:25:48;13.13;;;4.72;;
19167;SDS011;9716;53.114;18.040;2023-05-08T02:28:18;15.30;;;5.45;;
19167;SDS011;9716;53.114;18.040;2023-05-08T02:30:49;8.52;;;4.70;;
19167;SDS011;9716;53.114;18.040;2023-05-08T02:33:20;15.88;;;5.47;;
19167;SDS011;9716;53.114;18.040;2023-05-08T02:35:49;8.57;;;5.13;;
19167;SDS011;9716;53.114;18.040;2023-05-08T02:38:19;12.07;;;5.72;;
19167;SDS011;9716;53.114;18.040;2023-05-08T02:40:50;10.80;;;5.15;;
19167;SDS011;9716;53.114;18.040;2023-05-08T02:43:23;13.73;;;5.47;;
19167;SDS011;9716;53.114;18.040;2023-05-08T02:45:55;13.55;;;4.97;;
19167;SDS011;9716;53.114;18.040;2023-05-08T02:48:32;12.20;;;5.13;;
19167;SDS011;9716;53.114;18.040;2023-05-08T02:51:09;10.60;;;5.47;;
19167;SDS011;9716;53.114;18.040;2023-05-08T02:53:49;11.05;;;5.57;;
19167;SDS011;9716;53.114;18.040;2023-05-08T02:56:26;7.47;;;4.70;;
19167;SDS011;9716;53.114;18.040;2023-05-08T02:59:04;8.63;;;4.75;;
19167;SDS011;9716;53.114;18.040;2023-05-08T03:01:41;10.48;;;5.70;;
19167;SDS011;9716;53.114;18.040;2023-05-08T03:04:18;11.90;;;5.25;;
19167;SDS011;9716;53.114;18.040;2023-05-08T03:06:52;9.38;;;4.95;;
19167;SDS011;9716;53.114;18.040;2023-05-08T03:09:24;12.82;;;4.57;;
19167;SDS011;9716;53.114;18.040;2023-05-08T03:11:59;14.50;;;5.45;;
19167;SDS011;9716;53.114;18.040;2023-05-08T03:14:32;17.77;;;6.57;;
19167;SDS011;9716;53.114;18.040;2023-05-08T03:17:06;16.80;;;4.93;;
19167;SDS011;9716;53.114;18.040;2023-05-08T03:19:38;11.40;;;5.65;;
19167;SDS011;9716;53.114;18.040;2023-05-08T03:22:10;14.00;;;5.30;;
19167;SDS011;9716;53.114;18.040;2023-05-08T03:24:42;10.20;;;5.00;;
19167;SDS011;9716;53.114;18.040;2023-05-08T03:27:12;11.77;;;5.38;;
19167;SDS011;9716;53.114;18.040;2023-05-08T03:29:43;13.57;;;4.47;;
19167;SDS011;9716;53.114;18.040;2023-05-08T03:32:12;12.90;;;6.18;;
19167;SDS011;9716;53.114;18.040;2023-05-08T03:34:43;8.30;;;4.95;;
19167;SDS011;9716;53.114;18.040;2023-05-08T03:37:12;14.70;;;5.65;;
19167;SDS011;9716;53.114;18.040;2023-05-08T03:39:40;7.40;;;4.18;;
19167;SDS011;9716;53.114;18.040;2023-05-08T03:42:09;9.90;;;4.50;;
19167;SDS011;9716;53.114;18.040;2023-05-08T03:44:47;7.93;;;4.82;;
19167;SDS011;9716;53.114;18.040;2023-05-08T03:47:17;9.32;;;5.05;;
19167;SDS011;9716;53.114;18.040;2023-05-08T03:49:48;11.30;;;4.97;;
19167;SDS011;9716;53.114;18.040;2023-05-08T03:52:17;12.32;;;4.97;;
19167;SDS011;9716;53.114;18.040;2023-05-08T03:54:45;8.75;;;5.63;;
19167;SDS011;9716;53.114;18.040;2023-05-08T03:57:13;15.20;;;5.90;;
19167;SDS011;9716;53.114;18.040;2023-05-08T03:59:43;17.67;;;5.93;;
19167;SDS011;9716;53.114;18.040;2023-05-08T04:02:19;15.13;;;6.63;;
19167;SDS011;9716;53.114;18.040;2023-05-08T04:04:59;16.52;;;5.85;;
19167;SDS011;9716;53.114;18.040;2023-05-08T04:07:34;13.43;;;6.72;;
19167;SDS011;9716;53.114;18.040;2023-05-08T04:10:06;14.73;;;6.80;;
19167;SDS011;9716;53.114;18.040;2023-05-08T04:12:39;23.15;;;7.70;;
19167;SDS011;9716;53.114;18.040;2023-05-08T04:15:16;17.77;;;7.70;;
19167;SDS011;9716;53.114;18.040;2023-05-08T04:17:49;16.17;;;8.13;;
19167;SDS011;9716;53.114;18.040;2023-05-08T04:20:23;15.43;;;7.53;;
19167;SDS011;9716;53.114;18.040;2023-05-08T04:22:53;21.27;;;7.00;;
19167;SDS011;9716;53.114;18.040;2023-05-08T04:25:24;19.35;;;7.40;;
19167;SDS011;9716;53.114;18.040;2023-05-08T04:27:53;21.10;;;7.78;;
19167;SDS011;9716;53.114;18.040;2023-05-08T04:30:23;12.73;;;7.45;;
19167;SDS011;9716;53.114;18.040;2023-05-08T04:32:52;14.85;;;7.75;;
19167;SDS011;9716;53.114;18.040;2023-05-08T04:35:23;24.85;;;8.18;;
19167;SDS011;9716;53.114;18.040;2023-05-08T04:37:51;16.63;;;8.07;;
19167;SDS011;9716;53.114;18.040;2023-05-08T04:40:20;18.88;;;8.18;;
19167;SDS011;9716;53.114;18.040;2023-05-08T04:42:48;26.00;;;7.75;;
19167;SDS011;9716;53.114;18.040;2023-05-08T04:45:17;15.93;;;8.27;;
19167;SDS011;9716;53.114;18.040;2023-05-08T04:47:45;20.08;;;7.90;;
19167;SDS011;9716;53.114;18.040;2023-05-08T04:50:14;15.85;;;7.28;;
19167;SDS011;9716;53.114;18.040;2023-05-08T04:52:43;13.50;;;7.00;;
19167;SDS011;9716;53.114;18.040;2023-05-08T04:55:12;14.10;;;7.20;;
19167;SDS011;9716;53.114;18.040;2023-05-08T04:57:40;15.43;;;7.00;;
19167;SDS011;9716;53.114;18.040;2023-05-08T05:00:10;17.85;;;8.52;;
19167;SDS011;9716;53.114;18.040;2023-05-08T05:02:39;16.05;;;6.72;;
19167;SDS011;9716;53.114;18.040;2023-05-08T05:05:08;14.60;;;8.15;;
19167;SDS011;9716;53.114;18.040;2023-05-08T05:07:37;15.90;;;7.78;;
19167;SDS011;9716;53.114;18.040;2023-05-08T05:10:07;15.85;;;7.88;;
19167;SDS011;9716;53.114;18.040;2023-05-08T05:12:36;15.45;;;7.47;;
19167;SDS011;9716;53.114;18.040;2023-05-08T05:15:05;21.15;;;7.80;;
19167;SDS011;9716;53.114;18.040;2023-05-08T05:17:34;19.98;;;7.50;;
19167;SDS011;9716;53.114;18.040;2023-05-08T05:20:03;18.23;;;7.47;;
19167;SDS011;9716;53.114;18.040;2023-05-08T05:22:34;14.55;;;7.40;;
19167;SDS011;9716;53.114;18.040;2023-05-08T05:25:02;21.38;;;8.18;;
19167;SDS011;9716;53.114;18.040;2023-05-08T05:27:34;21.20;;;7.97;;
19167;SDS011;9716;53.114;18.040;2023-05-08T05:30:03;21.13;;;8.38;;
19167;SDS011;9716;53.114;18.040;2023-05-08T05:32:32;17.23;;;8.20;;
19167;SDS011;9716;53.114;18.040;2023-05-08T05:35:01;13.90;;;7.30;;
19167;SDS011;9716;53.114;18.040;2023-05-08T05:37:29;19.08;;;8.32;;
19167;SDS011;9716;53.114;18.040;2023-05-08T05:40:00;15.48;;;7.72;;
19167;SDS011;9716;53.114;18.040;2023-05-08T05:42:28;20.10;;;8.65;;
19167;SDS011;9716;53.114;18.040;2023-05-08T05:44:58;18.27;;;7.78;;
19167;SDS011;9716;53.114;18.040;2023-05-08T05:47:27;18.42;;;8.52;;
19167;SDS011;9716;53.114;18.040;2023-05-08T05:49:56;19.00;;;6.70;;
19167;SDS011;9716;53.114;18.040;2023-05-08T05:52:24;18.05;;;8.23;;
19167;SDS011;9716;53.114;18.040;2023-05-08T05:54:53;14.98;;;7.53;;
19167;SDS011;9716;53.114;18.040;2023-05-08T05:57:21;20.52;;;8.38;;
19167;SDS011;9716;53.114;18.040;2023-05-08T05:59:50;17.17;;;7.45;;
19167;SDS011;9716;53.114;18.040;2023-05-08T06:02:21;16.77;;;7.25;;
19167;SDS011;9716;53.114;18.040;2023-05-08T06:04:50;21.35;;;7.30;;
19167;SDS011;9716;53.114;18.040;2023-05-08T06:07:18;15.55;;;6.72;;
19167;SDS011;9716;53.114;18.040;2023-05-08T06:09:47;23.27;;;7.57;;
19167;SDS011;9716;53.114;18.040;2023-05-08T06:12:16;11.45;;;5.97;;
19167;SDS011;9716;53.114;18.040;2023-05-08T06:14:45;18.92;;;7.78;;
19167;SDS011;9716;53.114;18.040;2023-05-08T06:17:13;13.38;;;7.30;;
19167;SDS011;9716;53.114;18.040;2023-05-08T06:19:43;13.57;;;6.63;;
19167;SDS011;9716;53.114;18.040;2023-05-08T06:22:15;15.63;;;6.80;;
19167;SDS011;9716;53.114;18.040;2023-05-08T06:24:44;15.20;;;5.90;;
19167;SDS011;9716;53.114;18.040;2023-05-08T06:27:12;14.43;;;5.75;;
19167;SDS011;9716;53.114;18.040;2023-05-08T06:29:41;13.73;;;6.00;;
19167;SDS011;9716;53.114;18.040;2023-05-08T06:32:09;15.13;;;6.47;;
19167;SDS011;9716;53.114;18.040;2023-05-08T06:34:37;12.15;;;5.72;;
19167;SDS011;9716;53.114;18.040;2023-05-08T06:37:07;15.45;;;6.60;;
19167;SDS011;9716;53.114;18.040;2023-05-08T06:39:35;13.48;;;5.60;;
19167;SDS011;9716;53.114;18.040;2023-05-08T06:42:04;9.25;;;4.93;;
19167;SDS011;9716;53.114;18.040;2023-05-08T06:44:34;13.75;;;5.78;;
19167;SDS011;9716;53.114;18.040;2023-05-08T06:47:02;9.80;;;4.88;;
19167;SDS011;9716;53.114;18.040;2023-05-08T06:49:31;11.38;;;4.80;;
19167;SDS011;9716;53.114;18.040;2023-05-08T06:51:59;11.60;;;4.60;;
19167;SDS011;9716;53.114;18.040;2023-05-08T06:54:29;9.82;;;5.30;;
19167;SDS011;9716;53.114;18.040;2023-05-08T06:56:57;7.78;;;4.22;;
19167;SDS011;9716;53.114;18.040;2023-05-08T06:59:26;6.53;;;4.32;;
19167;SDS011;9716;53.114;18.040;2023-05-08T07:01:54;8.95;;;4.50;;
19167;SDS011;9716;53.114;18.040;2023-05-08T07:04:23;7.97;;;2.65;;
19167;SDS011;9716;53.114;18.040;2023-05-08T07:06:51;7.47;;;2.90;;
19167;SDS011;9716;53.114;18.040;2023-05-08T07:09:20;9.52;;;3.40;;
19167;SDS011;9716;53.114;18.040;2023-05-08T07:11:49;6.53;;;3.40;;
19167;SDS011;9716;53.114;18.040;2023-05-08T07:14:18;5.25;;;3.35;;
19167;SDS011;9716;53.114;18.040;2023-05-08T07:16:46;11.35;;;4.00;;
19167;SDS011;9716;53.114;18.040;2023-05-08T07:19:14;8.32;;;3.30;;
19167;SDS011;9716;53.114;18.040;2023-05-08T07:21:43;9.60;;;2.88;;
19167;SDS011;9716;53.114;18.040;2023-05-08T07:24:13;7.20;;;3.00;;
19167;SDS011;9716;53.114;18.040;2023-05-08T07:26:41;7.35;;;2.90;;
19167;SDS011;9716;53.114;18.040;2023-05-08T07:29:11;3.05;;;2.17;;
19167;SDS011;9716;53.114;18.040;2023-05-08T07:31:39;6.85;;;2.50;;
19167;SDS011;9716;53.114;18.040;2023-05-08T07:34:08;7.90;;;2.60;;
19167;SDS011;9716;53.114;18.040;2023-05-08T07:36:36;4.32;;;2.20;;
19167;SDS011;9716;53.114;18.040;2023-05-08T07:39:05;4.20;;;2.53;;
19167;SDS011;9716;53.114;18.040;2023-05-08T07:41:34;4.90;;;2.55;;
19167;SDS011;9716;53.114;18.040;2023-05-08T07:44:04;6.60;;;2.75;;
19167;SDS011;9716;53.114;18.040;2023-05-08T07:46:34;3.45;;;2.22;;
19167;SDS011;9716;53.114;18.040;2023-05-08T07:49:03;4.80;;;2.20;;
19167;SDS011;9716;53.114;18.040;2023-05-08T07:51:31;3.22;;;2.05;;
19167;SDS011;9716;53.114;18.040;2023-05-08T07:53:59;12.77;;;2.80;;
19167;SDS011;9716;53.114;18.040;2023-05-08T07:56:28;8.07;;;2.72;;
19167;SDS011;9716;53.114;18.040;2023-05-08T07:58:56;7.35;;;3.05;;
19167;SDS011;9716;53.114;18.040;2023-05-08T08:01:25;4.65;;;2.10;;
19167;SDS011;9716;53.114;18.040;2023-05-08T08:03:54;3.33;;;1.88;;
19167;SDS011;9716;53.114;18.040;2023-05-08T08:06:23;2.45;;;2.25;;
19167;SDS011;9716;53.114;18.040;2023-05-08T08:08:52;2.55;;;1.70;;
19167;SDS011;9716;53.114;18.040;2023-05-08T08:11:20;5.15;;;1.95;;
19167;SDS011;9716;53.114;18.040;2023-05-08T08:13:49;3.03;;;1.17;;
19167;SDS011;9716;53.114;18.040;2023-05-08T08:16:17;3.85;;;1.73;;
19167;SDS011;9716;53.114;18.040;2023-05-08T08:18:46;3.35;;;1.55;;
19167;SDS011;9716;53.114;18.040;2023-05-08T08:21:16;5.47;;;2.05;;
19167;SDS011;9716;53.114;18.040;2023-05-08T08:23:44;1.95;;;1.35;;
19167;SDS011;9716;53.114;18.040;2023-05-08T08:26:12;2.30;;;1.20;;
19167;SDS011;9716;53.114;18.040;2023-05-08T08:28:40;2.67;;;1.80;;
19167;SDS011;9716;53.114;18.040;2023-05-08T08:31:09;4.07;;;2.30;;
19167;SDS011;9716;53.114;18.040;2023-05-08T08:33:37;4.20;;;1.73;;
19167;SDS011;9716;53.114;18.040;2023-05-08T08:36:11;3.03;;;1.88;;
19167;SDS011;9716;53.114;18.040;2023-05-08T08:38:41;2.85;;;1.73;;
19167;SDS011;9716;53.114;18.040;2023-05-08T08:41:11;5.40;;;2.08;;
19167;SDS011;9716;53.114;18.040;2023-05-08T08:43:41;4.05;;;2.00;;
19167;SDS011;9716;53.114;18.040;2023-05-08T08:46:10;8.15;;;2.45;;
19167;SDS011;9716;53.114;18.040;2023-05-08T08:48:42;4.93;;;1.80;;
19167;SDS011;9716;53.114;18.040;2023-05-08T08:51:13;2.38;;;1.63;;
19167;SDS011;9716;53.114;18.040;2023-05-08T08:53:52;2.03;;;1.67;;
19167;SDS011;9716;53.114;18.040;2023-05-08T08:56:25;2.53;;;1.60;;
19167;SDS011;9716;53.114;18.040;2023-05-08T08:58:55;3.00;;;1.73;;
19167;SDS011;9716;53.114;18.040;2023-05-08T09:01:25;2.15;;;1.38;;
19167;SDS011;9716;53.114;18.040;2023-05-08T09:03:56;1.25;;;1.15;;
19167;SDS011;9716;53.114;18.040;2023-05-08T09:06:25;1.67;;;1.42;;
19167;SDS011;9716;53.114;18.040;2023-05-08T09:08:56;1.77;;;1.42;;
19167;SDS011;9716;53.114;18.040;2023-05-08T09:11:25;2.67;;;1.75;;
19167;SDS011;9716;53.114;18.040;2023-05-08T09:13:54;4.10;;;1.63;;
19167;SDS011;9716;53.114;18.040;2023-05-08T09:16:23;2.88;;;1.50;;
19167;SDS011;9716;53.114;18.040;2023-05-08T09:18:52;4.93;;;1.70;;
19167;SDS011;9716;53.114;18.040;2023-05-08T09:21:20;2.45;;;1.63;;
19167;SDS011;9716;53.114;18.040;2023-05-08T09:23:57;2.28;;;1.58;;
19167;SDS011;9716;53.114;18.040;2023-05-08T09:26:28;2.60;;;1.70;;
19167;SDS011;9716;53.114;18.040;2023-05-08T09:29:07;2.53;;;1.52;;
19167;SDS011;9716;53.114;18.040;2023-05-08T09:31:37;3.65;;;2.33;;
19167;SDS011;9716;53.114;18.040;2023-05-08T09:34:07;2.58;;;1.77;;
19167;SDS011;9716;53.114;18.040;2023-05-08T09:36:36;4.70;;;2.00;;
19167;SDS011;9716;53.114;18.040;2023-05-08T09:39:10;3.88;;;1.77;;
19167;SDS011;9716;53.114;18.040;2023-05-08T09:41:40;3.80;;;2.03;;
19167;SDS011;9716;53.114;18.040;2023-05-08T09:44:24;5.93;;;1.55;;
19167;SDS011;9716;53.114;18.040;2023-05-08T09:47:08;4.80;;;1.85;;
19167;SDS011;9716;53.114;18.040;2023-05-08T09:49:37;5.40;;;1.80;;
19167;SDS011;9716;53.114;18.040;2023-05-08T09:52:06;4.80;;;1.85;;
19167;SDS011;9716;53.114;18.040;2023-05-08T09:54:36;2.70;;;1.52;;
19167;SDS011;9716;53.114;18.040;2023-05-08T09:57:10;4.80;;;2.53;;
19167;SDS011;9716;53.114;18.040;2023-05-08T09:59:39;4.97;;;1.75;;
19167;SDS011;9716;53.114;18.040;2023-05-08T10:02:11;2.60;;;1.88;;
19167;SDS011;9716;53.114;18.040;2023-05-08T10:04:41;7.63;;;2.70;;
19167;SDS011;9716;53.114;18.040;2023-05-08T10:07:10;3.35;;;2.03;;
19167;SDS011;9716;53.114;18.040;2023-05-08T10:09:40;4.63;;;2.22;;
19167;SDS011;9716;53.114;18.040;2023-05-08T10:12:26;3.70;;;1.73;;
19167;SDS011;9716;53.114;18.040;2023-05-08T10:14:55;3.80;;;1.63;;
19167;SDS011;9716;53.114;18.040;2023-05-08T10:17:25;3.60;;;1.88;;
19167;SDS011;9716;53.114;18.040;2023-05-08T10:19:58;3.63;;;1.80;;
19167;SDS011;9716;53.114;18.040;2023-05-08T10:22:28;3.05;;;1.85;;
19167;SDS011;9716;53.114;18.040;2023-05-08T10:25:00;2.92;;;1.67;;
19167;SDS011;9716;53.114;18.040;2023-05-08T10:27:33;3.45;;;2.15;;
19167;SDS011;9716;53.114;18.040;2023-05-08T10:30:07;4.75;;;2.40;;
19167;SDS011;9716;53.114;18.040;2023-05-08T10:32:41;4.32;;;2.28;;
19167;SDS011;9716;53.114;18.040;2023-05-08T10:35:10;6.30;;;2.70;;
19167;SDS011;9716;53.114;18.040;2023-05-08T10:37:39;6.55;;;2.95;;
19167;SDS011;9716;53.114;18.040;2023-05-08T10:40:10;3.10;;;2.15;;
19167;SDS011;9716;53.114;18.040;2023-05-08T10:42:42;4.03;;;2.00;;
19167;SDS011;9716;53.114;18.040;2023-05-08T10:45:11;5.85;;;1.92;;
19167;SDS011;9716;53.114;18.040;2023-05-08T10:47:43;5.78;;;1.80;;
19167;SDS011;9716;53.114;18.040;2023-05-08T10:50:23;4.22;;;2.38;;
19167;SDS011;9716;53.114;18.040;2023-05-08T10:53:09;7.18;;;2.40;;
19167;SDS011;9716;53.114;18.040;2023-05-08T10:55:45;4.72;;;2.13;;
19167;SDS011;9716;53.114;18.040;2023-05-08T10:58:27;2.20;;;1.75;;
19167;SDS011;9716;53.114;18.040;2023-05-08T11:01:10;4.63;;;1.92;;
19167;SDS011;9716;53.114;18.040;2023-05-08T11:03:44;5.25;;;2.35;;
19167;SDS011;9716;53.114;18.040;2023-05-08T11:06:17;2.72;;;1.55;;
19167;SDS011;9716;53.114;18.040;2023-05-08T11:09:08;13.65;;;2.83;;
19167;SDS011;9716;53.114;18.040;2023-05-08T11:11:49;3.30;;;1.83;;
19167;SDS011;9716;53.114;18.040;2023-05-08T11:14:26;2.88;;;1.83;;
19167;SDS011;9716;53.114;18.040;2023-05-08T11:17:05;2.90;;;1.73;;
19167;SDS011;9716;53.114;18.040;2023-05-08T11:19:35;2.50;;;1.77;;
19167;SDS011;9716;53.114;18.040;2023-05-08T11:22:20;10.32;;;3.00;;
19167;SDS011;9716;53.114;18.040;2023-05-08T11:24:54;2.83;;;2.20;;
19167;SDS011;9716;53.114;18.040;2023-05-08T11:30:36;2.47;;;1.63;;
19167;SDS011;9716;53.114;18.040;2023-05-08T11:33:13;2.15;;;1.60;;
19167;SDS011;9716;53.114;18.040;2023-05-08T11:35:47;2.33;;;1.48;;
19167;SDS011;9716;53.114;18.040;2023-05-08T11:38:26;3.00;;;1.63;;
19167;SDS011;9716;53.114;18.040;2023-05-08T11:40:57;1.77;;;1.30;;
19167;SDS011;9716;53.114;18.040;2023-05-08T11:46:41;6.03;;;2.08;;
19167;SDS011;9716;53.114;18.040;2023-05-08T11:49:15;8.38;;;2.20;;
19167;SDS011;9716;53.114;18.040;2023-05-08T11:51:50;3.25;;;1.65;;
19167;SDS011;9716;53.114;18.040;2023-05-08T11:54:21;1.83;;;1.45;;
19167;SDS011;9716;53.114;18.040;2023-05-08T11:56:50;5.60;;;1.83;;
19167;SDS011;9716;53.114;18.040;2023-05-08T11:59:20;3.90;;;1.42;;
19167;SDS011;9716;53.114;18.040;2023-05-08T12:01:50;1.75;;;1.48;;
19167;SDS011;9716;53.114;18.040;2023-05-08T12:04:41;8.07;;;1.77;;
19167;SDS011;9716;53.114;18.040;2023-05-08T12:07:11;3.72;;;1.98;;
19167;SDS011;9716;53.114;18.040;2023-05-08T12:09:39;2.50;;;1.70;;
19167;SDS011;9716;53.114;18.040;2023-05-08T12:12:08;3.22;;;1.90;;
19167;SDS011;9716;53.114;18.040;2023-05-08T12:14:36;7.40;;;2.15;;
19167;SDS011;9716;53.114;18.040;2023-05-08T12:17:06;3.50;;;2.40;;
19167;SDS011;9716;53.114;18.040;2023-05-08T12:19:34;4.15;;;1.98;;
19167;SDS011;9716;53.114;18.040;2023-05-08T12:22:03;2.10;;;1.90;;
19167;SDS011;9716;53.114;18.040;2023-05-08T12:24:31;3.70;;;1.88;;
19167;SDS011;9716;53.114;18.040;2023-05-08T12:27:00;4.13;;;2.13;;
19167;SDS011;9716;53.114;18.040;2023-05-08T12:29:28;5.57;;;2.30;;
19167;SDS011;9716;53.114;18.040;2023-05-08T12:31:57;6.68;;;3.75;;
19167;SDS011;9716;53.114;18.040;2023-05-08T12:34:27;5.57;;;2.78;;
19167;SDS011;9716;53.114;18.040;2023-05-08T12:37:01;9.40;;;2.38;;
19167;SDS011;9716;53.114;18.040;2023-05-08T12:39:33;4.75;;;2.10;;
19167;SDS011;9716;53.114;18.040;2023-05-08T12:42:03;2.58;;;2.08;;
19167;SDS011;9716;53.114;18.040;2023-05-08T12:44:31;3.85;;;1.83;;
19167;SDS011;9716;53.114;18.040;2023-05-08T12:47:00;7.78;;;2.88;;
19167;SDS011;9716;53.114;18.040;2023-05-08T12:49:30;8.43;;;2.35;;
19167;SDS011;9716;53.114;18.040;2023-05-08T12:52:00;7.90;;;2.03;;
19167;SDS011;9716;53.114;18.040;2023-05-08T12:54:36;9.80;;;3.13;;
19167;SDS011;9716;53.114;18.040;2023-05-08T12:57:10;7.55;;;2.53;;
19167;SDS011;9716;53.114;18.040;2023-05-08T12:59:39;6.22;;;2.67;;
19167;SDS011;9716;53.114;18.040;2023-05-08T13:02:13;3.85;;;2.17;;
19167;SDS011;9716;53.114;18.040;2023-05-08T13:04:44;3.53;;;1.52;;
19167;SDS011;9716;53.114;18.040;2023-05-08T13:07:13;2.55;;;1.58;;
19167;SDS011;9716;53.114;18.040;2023-05-08T13:09:57;2.75;;;1.50;;
19167;SDS011;9716;53.114;18.040;2023-05-08T13:12:28;3.33;;;2.08;;
19167;SDS011;9716;53.114;18.040;2023-05-08T13:14:56;4.32;;;1.45;;
19167;SDS011;9716;53.114;18.040;2023-05-08T13:17:25;2.67;;;1.88;;
19167;SDS011;9716;53.114;18.040;2023-05-08T13:19:54;5.22;;;1.90;;
19167;SDS011;9716;53.114;18.040;2023-05-08T13:22:23;3.17;;;1.50;;
19167;SDS011;9716;53.114;18.040;2023-05-08T13:24:52;2.25;;;1.85;;
19167;SDS011;9716;53.114;18.040;2023-05-08T13:27:21;3.92;;;2.00;;
19167;SDS011;9716;53.114;18.040;2023-05-08T13:29:49;4.53;;;2.00;;
19167;SDS011;9716;53.114;18.040;2023-05-08T13:32:18;2.03;;;1.80;;
19167;SDS011;9716;53.114;18.040;2023-05-08T13:34:46;2.95;;;1.63;;
19167;SDS011;9716;53.114;18.040;2023-05-08T13:37:21;6.57;;;1.73;;
19167;SDS011;9716;53.114;18.040;2023-05-08T13:39:49;3.45;;;1.90;;
19167;SDS011;9716;53.114;18.040;2023-05-08T13:42:17;4.05;;;2.17;;
19167;SDS011;9716;53.114;18.040;2023-05-08T13:44:46;4.00;;;2.17;;
19167;SDS011;9716;53.114;18.040;2023-05-08T13:47:14;3.55;;;2.25;;
19167;SDS011;9716;53.114;18.040;2023-05-08T13:49:42;2.17;;;1.63;;
19167;SDS011;9716;53.114;18.040;2023-05-08T13:52:16;3.33;;;1.75;;
19167;SDS011;9716;53.114;18.040;2023-05-08T13:54:45;2.72;;;1.80;;
19167;SDS011;9716;53.114;18.040;2023-05-08T13:57:14;2.20;;;1.50;;
19167;SDS011;9716;53.114;18.040;2023-05-08T13:59:42;2.38;;;1.25;;
19167;SDS011;9716;53.114;18.040;2023-05-08T14:02:10;2.40;;;1.50;;
19167;SDS011;9716;53.114;18.040;2023-05-08T14:04:40;3.63;;;1.95;;
19167;SDS011;9716;53.114;18.040;2023-05-08T14:07:08;5.85;;;2.10;;
19167;SDS011;9716;53.114;18.040;2023-05-08T14:09:37;6.28;;;1.55;;
19167;SDS011;9716;53.114;18.040;2023-05-08T14:12:06;3.60;;;1.58;;
19167;SDS011;9716;53.114;18.040;2023-05-08T14:14:35;7.88;;;2.08;;
19167;SDS011;9716;53.114;18.040;2023-05-08T14:17:03;1.70;;;1.10;;
19167;SDS011;9716;53.114;18.040;2023-05-08T14:19:32;2.78;;;1.70;;
19167;SDS011;9716;53.114;18.040;2023-05-08T14:22:01;2.45;;;1.60;;
19167;SDS011;9716;53.114;18.040;2023-05-08T14:24:29;17.35;;;2.15;;
19167;SDS011;9716;53.114;18.040;2023-05-08T14:26:57;3.72;;;2.33;;
19167;SDS011;9716;53.114;18.040;2023-05-08T14:29:28;1.83;;;1.45;;
19167;SDS011;9716;53.114;18.040;2023-05-08T14:31:57;1.90;;;1.52;;
19167;SDS011;9716;53.114;18.040;2023-05-08T14:34:25;2.03;;;1.60;;
19167;SDS011;9716;53.114;18.040;2023-05-08T14:36:54;5.38;;;1.67;;
19167;SDS011;9716;53.114;18.040;2023-05-08T14:39:23;6.35;;;1.75;;
19167;SDS011;9716;53.114;18.040;2023-05-08T14:41:51;1.48;;;1.38;;
19167;SDS011;9716;53.114;18.040;2023-05-08T14:44:41;6.20;;;2.08;;
19167;SDS011;9716;53.114;18.040;2023-05-08T14:47:09;2.05;;;1.58;;
19167;SDS011;9716;53.114;18.040;2023-05-08T14:49:38;9.73;;;2.10;;
19167;SDS011;9716;53.114;18.040;2023-05-08T14:52:06;1.58;;;1.20;;
19167;SDS011;9716;53.114;18.040;2023-05-08T14:54:34;5.90;;;1.50;;
19167;SDS011;9716;53.114;18.040;2023-05-08T14:57:03;2.22;;;1.70;;
19167;SDS011;9716;53.114;18.040;2023-05-08T14:59:32;6.75;;;1.83;;
19167;SDS011;9716;53.114;18.040;2023-05-08T15:02:02;4.80;;;2.03;;
19167;SDS011;9716;53.114;18.040;2023-05-08T15:04:30;3.05;;;1.40;;
19167;SDS011;9716;53.114;18.040;2023-05-08T15:07:01;5.03;;;1.90;;
19167;SDS011;9716;53.114;18.040;2023-05-08T15:09:30;7.70;;;1.65;;
19167;SDS011;9716;53.114;18.040;2023-05-08T15:11:59;7.85;;;4.25;;